createdAt,value
2018-04-07T00:01:58.345Z,3.85
2018-04-07T00:04:25.821Z,3.60
2018-04-07T00:06:53.499Z,3.97
2018-04-07T00:09:20.949Z,3.12
2018-04-07T00:11:48.483Z,3.30
2018-04-07T00:14:16.034Z,3.80
2018-04-07T00:16:43.483Z,3.62
2018-04-07T00:19:10.987Z,3.72
2018-04-07T00:21:39.239Z,3.83
2018-04-07T00:24:08.208Z,2.97
2018-04-07T00:26:35.691Z,2.72
2018-04-07T00:29:03.157Z,2.85
2018-04-07T00:31:30.912Z,2.65
2018-04-07T00:33:58.596Z,3.17
2018-04-07T00:36:26.828Z,2.92
2018-04-07T00:38:54.515Z,3.08
2018-04-07T00:41:21.971Z,3.50
2018-04-07T00:43:49.433Z,2.58
2018-04-07T00:46:16.987Z,2.95
2018-04-07T00:48:44.655Z,3.00
2018-04-07T00:51:12.132Z,2.80
2018-04-07T00:53:39.588Z,3.45
2018-04-07T00:56:07.048Z,3.40
2018-04-07T00:58:34.516Z,2.70
2018-04-07T01:01:01.963Z,2.92
2018-04-07T01:03:29.412Z,2.80
2018-04-07T01:05:56.890Z,3.28
2018-04-07T01:08:24.509Z,2.67
2018-04-07T01:10:51.992Z,3.33
2018-04-07T01:13:33.976Z,3.12
2018-04-07T01:16:01.902Z,2.80
2018-04-07T01:18:29.436Z,3.17
2018-04-07T01:20:56.884Z,2.80
2018-04-07T01:23:24.425Z,3.08
2018-04-07T01:25:51.876Z,3.90
2018-04-07T01:28:19.437Z,2.85
2018-04-07T01:30:46.896Z,3.20
2018-04-07T01:33:14.433Z,3.50
2018-04-07T01:35:42.020Z,2.80
2018-04-07T01:38:09.480Z,3.00
2018-04-07T01:40:36.931Z,2.70
2018-04-07T01:43:04.590Z,4.00
2018-04-07T01:45:32.039Z,4.05
2018-04-07T01:47:59.620Z,3.30
2018-04-07T01:50:27.068Z,2.55
2018-04-07T01:52:54.521Z,3.67
2018-04-07T01:55:22.304Z,2.62
2018-04-07T01:57:49.763Z,3.40
2018-04-07T02:00:17.525Z,3.15
2018-04-07T02:02:45.005Z,3.25
2018-04-07T02:05:12.449Z,3.75
2018-04-07T02:07:39.913Z,3.40
2018-04-07T02:10:07.820Z,3.42
2018-04-07T02:12:35.379Z,2.83
2018-04-07T02:15:02.836Z,3.05
2018-04-07T02:17:30.288Z,3.33
2018-04-07T02:19:57.764Z,3.85
2018-04-07T02:22:25.216Z,3.53
2018-04-07T02:24:52.676Z,2.87
2018-04-07T02:27:20.195Z,3.20
2018-04-07T02:29:47.652Z,3.20
2018-04-07T02:32:15.307Z,3.22
2018-04-07T02:34:42.772Z,2.75
2018-04-07T02:37:10.224Z,3.33
2018-04-07T02:39:37.683Z,3.08
2018-04-07T02:42:05.148Z,2.72
2018-04-07T02:44:32.600Z,3.97
2018-04-07T02:47:00.132Z,3.15
2018-04-07T02:49:27.590Z,2.95
2018-04-07T02:51:55.368Z,3.12
2018-04-07T02:54:22.825Z,2.85
2018-04-07T02:56:50.288Z,3.05
2018-04-07T02:59:17.879Z,2.80
2018-04-07T03:01:45.509Z,2.95
2018-04-07T03:04:13.131Z,2.50
2018-04-07T03:06:40.745Z,2.30
2018-04-07T03:09:08.195Z,2.35
2018-04-07T03:11:35.651Z,2.72
2018-04-07T03:14:03.119Z,2.78
2018-04-07T03:16:30.564Z,3.70
2018-04-07T03:18:58.328Z,2.80
2018-04-07T03:21:25.784Z,3.25
2018-04-07T03:23:53.243Z,3.08
2018-04-07T03:26:20.701Z,4.05
2018-04-07T03:28:48.156Z,3.45
2018-04-07T03:31:15.923Z,2.80
2018-04-07T03:33:43.379Z,3.47
2018-04-07T03:36:10.852Z,3.45
2018-04-07T03:38:38.605Z,3.60
2018-04-07T03:41:06.372Z,3.65
2018-04-07T03:43:33.835Z,4.15
2018-04-07T03:46:01.283Z,4.07
2018-04-07T03:48:28.740Z,4.12
2018-04-07T03:50:56.192Z,3.92
2018-04-07T03:53:23.664Z,2.87
2018-04-07T03:55:51.124Z,3.42
2018-04-07T03:58:18.584Z,3.85
2018-04-07T04:00:46.076Z,4.35
2018-04-07T04:03:13.707Z,4.40
2018-04-07T04:05:41.171Z,3.00
2018-04-07T04:08:08.712Z,3.10
2018-04-07T04:10:36.176Z,2.70
2018-04-07T04:13:03.629Z,2.72
2018-04-07T04:15:31.087Z,2.87
2018-04-07T04:17:58.557Z,3.25
2018-04-07T04:20:26.320Z,2.70
2018-04-07T04:22:53.768Z,2.87
2018-04-07T04:25:21.224Z,3.10
2018-04-07T04:27:48.992Z,2.75
2018-04-07T04:30:17.064Z,3.03
2018-04-07T04:32:44.507Z,3.12
2018-04-07T04:35:11.960Z,3.17
2018-04-07T04:37:39.444Z,2.45
2018-04-07T04:40:06.896Z,3.05
2018-04-07T04:42:34.664Z,3.10
2018-04-07T04:45:02.316Z,2.80
2018-04-07T04:47:29.785Z,3.28
2018-04-07T04:49:57.344Z,3.45
2018-04-07T04:52:24.801Z,3.12
2018-04-07T04:54:52.261Z,3.72
2018-04-07T04:57:19.943Z,3.00
2018-04-07T04:59:47.484Z,3.08
2018-04-07T05:02:14.951Z,2.67
2018-04-07T05:04:42.523Z,3.78
2018-04-07T05:07:10.758Z,4.03
2018-04-07T05:09:38.221Z,3.10
2018-04-07T05:12:05.696Z,3.50
2018-04-07T05:14:33.164Z,3.10
2018-04-07T05:17:00.849Z,3.12
2018-04-07T05:19:29.075Z,3.05
2018-04-07T05:21:56.572Z,2.65
2018-04-07T05:24:24.820Z,4.10
2018-04-07T05:26:52.317Z,3.08
2018-04-07T05:29:19.916Z,4.05
2018-04-07T05:31:47.520Z,3.60
2018-04-07T05:34:15.028Z,3.25
2018-04-07T05:36:42.495Z,3.35
2018-04-07T05:39:09.964Z,4.10
2018-04-07T05:41:37.451Z,3.85
2018-04-07T05:44:05.736Z,3.95
2018-04-07T05:46:33.225Z,3.95
2018-04-07T05:49:00.734Z,3.92
2018-04-07T05:51:28.216Z,3.80
2018-04-07T05:53:56.437Z,3.80
2018-04-07T05:56:23.889Z,3.55
2018-04-07T05:58:51.344Z,3.60
2018-04-07T06:01:18.808Z,3.30
2018-04-07T06:03:46.267Z,4.10
2018-04-07T06:06:13.725Z,3.00
2018-04-07T06:08:41.175Z,3.47
2018-04-07T06:11:08.641Z,3.92
2018-04-07T06:13:36.196Z,3.60
2018-04-07T06:16:03.654Z,3.55
2018-04-07T06:18:31.111Z,3.80
2018-04-07T06:20:58.573Z,4.25
2018-04-07T06:23:26.030Z,3.60
2018-04-07T06:25:53.649Z,3.50
2018-04-07T06:28:21.192Z,3.87
2018-04-07T06:30:50.164Z,4.75
2018-04-07T06:33:17.623Z,4.05
2018-04-07T06:35:45.078Z,4.47
2018-04-07T06:38:12.557Z,3.87
2018-04-07T06:40:40.009Z,3.55
2018-04-07T06:43:07.471Z,4.62
2018-04-07T06:45:35.237Z,4.25
2018-04-07T06:48:02.742Z,4.30
2018-04-07T06:50:30.380Z,5.03
2018-04-07T06:52:57.840Z,4.15
2018-04-07T06:55:25.383Z,4.22
2018-04-07T06:57:52.895Z,4.25
2018-04-07T07:00:20.600Z,4.85
2018-04-07T07:02:48.061Z,4.07
2018-04-07T07:05:15.523Z,5.28
2018-04-07T07:07:43.195Z,5.03
2018-04-07T07:10:10.741Z,4.45
2018-04-07T07:12:38.365Z,4.62
2018-04-07T07:15:05.828Z,5.10
2018-04-07T07:17:33.349Z,4.65
2018-04-07T07:20:00.808Z,4.80
2018-04-07T07:22:28.276Z,6.03
2018-04-07T07:24:55.756Z,4.50
2018-04-07T07:27:23.228Z,5.78
2018-04-07T07:29:50.708Z,4.85
2018-04-07T07:32:18.172Z,5.15
2018-04-07T07:34:45.658Z,5.47
2018-04-07T07:37:13.340Z,4.95
2018-04-07T07:39:40.812Z,5.93
2018-04-07T07:42:08.333Z,5.53
2018-04-07T07:44:36.071Z,4.63
2018-04-07T07:47:03.836Z,5.03
2018-04-07T07:49:31.456Z,5.27
2018-04-07T07:51:59.072Z,6.10
2018-04-07T07:54:26.563Z,6.03
2018-04-07T07:56:54.133Z,5.57
2018-04-07T07:59:21.591Z,5.70
2018-04-07T08:01:49.064Z,5.77
2018-04-07T08:04:16.539Z,4.50
2018-04-07T08:06:44.095Z,5.33
2018-04-07T08:09:11.568Z,4.90
2018-04-07T08:11:39.344Z,5.37
2018-04-07T08:14:07.108Z,5.40
2018-04-07T08:16:34.869Z,4.97
2018-04-07T08:19:02.532Z,5.13
2018-04-07T08:21:30.008Z,4.67
2018-04-07T08:23:57.550Z,4.60
2018-04-07T08:26:25.331Z,5.30
2018-04-07T08:28:53.009Z,4.60
2018-04-07T08:31:20.472Z,4.50
2018-04-07T08:33:47.936Z,5.43
2018-04-07T08:36:15.411Z,5.03
2018-04-07T08:38:42.872Z,4.93
2018-04-07T08:41:10.341Z,4.10
2018-04-07T08:43:37.802Z,4.00
2018-04-07T08:46:05.272Z,5.17
2018-04-07T08:48:32.748Z,5.00
2018-04-07T08:51:00.244Z,5.93
2018-04-07T08:53:27.749Z,4.43
2018-04-07T08:55:55.275Z,4.50
2018-04-07T08:58:22.798Z,5.97
2018-04-07T09:00:50.271Z,4.83
2018-04-07T09:03:17.745Z,4.83
2018-04-07T09:05:45.240Z,4.77
2018-04-07T09:08:12.715Z,5.17
2018-04-07T09:10:41.718Z,4.40
2018-04-07T09:13:09.471Z,5.80
2018-04-07T09:15:38.431Z,4.30
2018-04-07T09:18:05.889Z,4.17
2018-04-07T09:20:33.356Z,5.63
2018-04-07T09:23:00.851Z,4.20
2018-04-07T09:25:28.320Z,5.13
2018-04-07T09:27:55.988Z,4.60
2018-04-07T09:30:23.447Z,3.93
2018-04-07T09:32:50.924Z,4.87
2018-04-07T09:35:18.381Z,3.80
2018-04-07T09:37:45.873Z,4.83
2018-04-07T09:40:13.360Z,5.33
2018-04-07T09:42:40.827Z,4.43
2018-04-07T09:45:08.296Z,4.47
2018-04-07T09:47:35.755Z,4.40
2018-04-07T09:50:03.547Z,4.27
2018-04-07T09:52:31.029Z,4.37
2018-04-07T09:54:58.726Z,5.50
2018-04-07T09:57:26.492Z,4.50
2018-04-07T09:59:53.963Z,4.00
2018-04-07T10:02:21.447Z,3.50
2018-04-07T10:04:49.087Z,4.70
2018-04-07T10:07:16.552Z,4.13
2018-04-07T10:09:44.078Z,3.80
2018-04-07T10:12:11.538Z,4.13
2018-04-07T10:14:39.000Z,4.20
2018-04-07T10:17:06.520Z,4.50
2018-04-07T10:19:34.221Z,4.00
2018-04-07T10:22:01.691Z,4.33
2018-04-07T10:24:29.304Z,4.93
2018-04-07T10:26:56.901Z,4.30
2018-04-07T10:29:24.365Z,3.67
2018-04-07T10:31:52.042Z,3.33
2018-04-07T10:34:19.503Z,3.73
2018-04-07T10:36:47.003Z,3.30
2018-04-07T10:39:14.467Z,4.03
2018-04-07T10:41:41.975Z,3.80
2018-04-07T10:44:09.633Z,3.37
2018-04-07T10:46:37.092Z,2.80
2018-04-07T10:49:04.544Z,3.93
2018-04-07T10:51:32.010Z,3.67
2018-04-07T10:53:59.472Z,3.37
2018-04-07T10:56:26.942Z,3.93
2018-04-07T10:58:54.404Z,3.50
2018-04-07T11:01:21.854Z,3.80
2018-04-07T11:03:49.394Z,4.17
2018-04-07T11:06:16.856Z,3.23
2018-04-07T11:08:44.335Z,3.50
2018-04-07T11:11:12.063Z,3.40
2018-04-07T11:13:39.550Z,3.23
2018-04-07T11:16:07.343Z,3.47
2018-04-07T11:18:35.053Z,3.43
2018-04-07T11:21:02.516Z,2.73
2018-04-07T11:23:29.968Z,2.90
2018-04-07T11:25:57.436Z,3.10
2018-04-07T11:28:26.412Z,3.63
2018-04-07T11:30:54.040Z,2.90
2018-04-07T11:33:21.617Z,3.20
2018-04-07T11:35:49.073Z,3.67
2018-04-07T11:38:16.527Z,3.30
2018-04-07T11:40:43.989Z,3.80
2018-04-07T11:43:11.752Z,2.20
2018-04-07T11:45:39.205Z,2.30
2018-04-07T11:48:06.659Z,3.47
2018-04-07T11:50:34.126Z,2.43
2018-04-07T11:53:01.609Z,3.60
2018-04-07T11:55:29.065Z,2.80
2018-04-07T11:57:56.523Z,2.00
2018-04-07T12:00:24.307Z,2.53
2018-04-07T12:02:51.764Z,1.80
2018-04-07T12:05:19.224Z,2.23
2018-04-07T12:07:46.774Z,2.43
2018-04-07T12:10:14.210Z,2.40
2018-04-07T12:12:41.663Z,2.93
2018-04-07T12:15:09.323Z,2.73
2018-04-07T12:17:36.822Z,2.47
2018-04-07T12:20:05.792Z,3.10
2018-04-07T12:22:33.246Z,3.90
2018-04-07T12:25:00.736Z,3.07
2018-04-07T12:27:28.496Z,2.97
2018-04-07T12:29:56.249Z,2.90
2018-04-07T12:32:23.720Z,2.60
2018-04-07T12:34:51.400Z,3.50
2018-04-07T12:37:18.878Z,2.43
2018-04-07T12:39:46.339Z,2.50
2018-04-07T12:42:13.803Z,2.50
2018-04-07T12:44:41.308Z,2.13
2018-04-07T12:47:09.073Z,2.67
2018-04-07T12:49:36.546Z,2.70
2018-04-07T12:52:04.148Z,3.17
2018-04-07T12:54:31.708Z,3.00
2018-04-07T12:56:59.219Z,2.67
2018-04-07T12:59:26.667Z,2.83
2018-04-07T13:01:54.152Z,2.63
2018-04-07T13:04:21.697Z,2.77
2018-04-07T13:06:49.370Z,2.37
2018-04-07T13:09:17.035Z,3.00
2018-04-07T13:11:44.500Z,2.20
2018-04-07T13:14:12.041Z,2.40
2018-04-07T13:16:39.564Z,3.53
2018-04-07T13:19:07.057Z,2.47
2018-04-07T13:21:34.565Z,2.63
2018-04-07T13:24:02.141Z,2.30
2018-04-07T13:26:29.601Z,2.67
2018-04-07T13:28:57.056Z,2.87
2018-04-07T13:31:24.518Z,2.70
2018-04-07T13:33:51.990Z,2.77
2018-04-07T13:36:19.444Z,2.40
2018-04-07T13:38:46.926Z,2.70
2018-04-07T13:41:15.149Z,3.00
2018-04-07T13:43:42.768Z,2.87
2018-04-07T13:46:10.228Z,2.97
2018-04-07T13:48:37.729Z,2.67
2018-04-07T13:51:05.196Z,2.20
2018-04-07T13:53:32.896Z,2.50
2018-04-07T13:56:00.363Z,2.53
2018-04-07T13:58:29.332Z,2.20
2018-04-07T14:00:56.800Z,2.83
2018-04-07T14:03:24.631Z,2.30
2018-04-07T14:05:52.291Z,1.93
2018-04-07T14:08:19.770Z,2.10
2018-04-07T14:10:47.383Z,2.23
2018-04-07T14:13:14.970Z,2.13
2018-04-07T14:15:42.486Z,2.77
2018-04-07T14:18:11.444Z,2.27
2018-04-07T14:20:38.975Z,2.67
2018-04-07T14:23:06.455Z,2.50
2018-04-07T14:25:34.067Z,2.47
2018-04-07T14:28:01.614Z,2.53
2018-04-07T14:30:29.383Z,2.20
2018-04-07T14:32:58.379Z,2.30
2018-04-07T14:35:25.851Z,2.40
2018-04-07T14:37:53.564Z,2.50
2018-04-07T14:40:21.035Z,2.60
2018-04-07T14:42:48.496Z,2.23
2018-04-07T14:45:16.309Z,2.60
2018-04-07T14:47:43.967Z,2.93
2018-04-07T14:50:12.208Z,2.40
2018-04-07T14:52:39.663Z,3.20
2018-04-07T14:55:07.138Z,2.00
2018-04-07T14:57:34.731Z,2.37
2018-04-07T15:00:02.253Z,2.87
2018-04-07T15:02:29.715Z,2.43
2018-04-07T15:04:57.494Z,1.90
2018-04-07T15:07:25.248Z,1.83
2018-04-07T15:09:52.707Z,2.47
2018-04-07T15:12:20.429Z,3.57
2018-04-07T15:14:47.886Z,2.90
2018-04-07T15:17:15.387Z,2.10
2018-04-07T15:19:43.177Z,1.70
2018-04-07T15:22:10.913Z,2.20
2018-04-07T15:24:38.368Z,1.90
2018-04-07T15:27:05.831Z,2.70
2018-04-07T15:29:33.598Z,2.17
2018-04-07T15:32:01.088Z,1.50
2018-04-07T15:34:28.853Z,2.37
2018-04-07T15:36:56.574Z,2.00
2018-04-07T15:39:24.059Z,1.90
2018-04-07T15:41:51.807Z,2.00
2018-04-07T15:44:20.198Z,2.10
2018-04-07T15:46:47.875Z,2.27
2018-04-07T15:49:15.393Z,2.10
2018-04-07T15:51:42.848Z,1.77
2018-04-07T15:54:10.312Z,2.50
2018-04-07T15:56:37.797Z,2.23
2018-04-07T15:59:05.254Z,2.40
2018-04-07T16:01:34.385Z,2.23
2018-04-07T16:04:01.876Z,2.00
2018-04-07T16:06:29.349Z,1.73
2018-04-07T16:08:56.854Z,2.03
2018-04-07T16:11:24.333Z,1.90
2018-04-07T16:13:51.870Z,1.83
2018-04-07T16:16:19.346Z,2.70
2018-04-07T16:18:46.804Z,2.67
2018-04-07T16:21:14.512Z,2.50
2018-04-07T16:23:42.276Z,2.53
2018-04-07T16:26:09.731Z,1.70
2018-04-07T16:28:37.404Z,2.40
2018-04-07T16:31:04.847Z,2.53
2018-04-07T16:33:32.317Z,3.70
2018-04-07T16:36:00.799Z,2.60
2018-04-07T16:38:28.559Z,2.33
2018-04-07T16:40:56.023Z,2.93
2018-04-07T16:43:23.785Z,2.47
2018-04-07T16:45:51.557Z,3.00
2018-04-07T16:48:19.052Z,1.83
2018-04-07T16:50:46.573Z,3.53
2018-04-07T16:53:13.985Z,3.00
2018-04-07T16:55:41.540Z,2.73
2018-04-07T16:58:09.059Z,2.63
2018-04-07T17:00:36.632Z,2.70
2018-04-07T17:03:04.110Z,2.63
2018-04-07T17:05:31.751Z,2.43
2018-04-07T17:07:59.208Z,2.40
2018-04-07T17:10:26.743Z,2.90
2018-04-07T17:12:54.518Z,2.50
2018-04-07T17:15:21.975Z,2.03
2018-04-07T17:17:49.656Z,2.73
2018-04-07T17:20:18.112Z,2.50
2018-04-07T17:22:45.567Z,2.70
2018-04-07T17:25:14.529Z,3.00
2018-04-07T17:27:42.004Z,2.23
2018-04-07T17:30:09.484Z,2.57
2018-04-07T17:32:36.938Z,2.93
2018-04-07T17:35:04.428Z,2.70
2018-04-07T17:37:31.881Z,1.90
2018-04-07T17:39:59.531Z,2.97
2018-04-07T17:42:26.995Z,3.23
2018-04-07T17:44:54.452Z,3.03
2018-04-07T17:47:22.687Z,2.80
2018-04-07T17:49:50.441Z,4.30
2018-04-07T17:52:18.967Z,3.27
2018-04-07T17:54:47.053Z,3.00
2018-04-07T17:57:14.595Z,2.77
2018-04-07T17:59:42.055Z,3.77
2018-04-07T18:02:09.524Z,3.87
2018-04-07T18:04:37.272Z,3.60
2018-04-07T18:07:04.943Z,4.33
2018-04-07T18:09:32.416Z,3.93
2018-04-07T18:11:59.877Z,3.87
2018-04-07T18:14:27.356Z,3.87
2018-04-07T18:16:54.886Z,3.43
2018-04-07T18:19:22.502Z,3.53
2018-04-07T18:21:50.692Z,5.00
2018-04-07T18:24:18.155Z,4.13
2018-04-07T18:26:45.927Z,3.70
2018-04-07T18:29:13.399Z,4.20
2018-04-07T18:31:40.867Z,4.93
2018-04-07T18:34:08.335Z,3.87
2018-04-07T18:36:35.987Z,5.83
2018-04-07T18:39:03.449Z,3.77
2018-04-07T18:41:30.924Z,4.67
2018-04-07T18:43:58.592Z,4.73
2018-04-07T18:46:26.161Z,5.00
2018-04-07T18:48:53.633Z,4.87
2018-04-07T18:51:21.095Z,5.60
2018-04-07T18:53:48.622Z,5.53
2018-04-07T18:56:16.347Z,5.53
2018-04-07T18:58:43.800Z,5.17
2018-04-07T19:01:11.267Z,6.03
2018-04-07T19:03:38.730Z,6.10
2018-04-07T19:06:06.188Z,7.40
2018-04-07T19:08:33.660Z,7.00
2018-04-07T19:11:01.113Z,6.13
2018-04-07T19:13:28.783Z,6.60
2018-04-07T19:15:56.243Z,6.63
2018-04-07T19:18:23.777Z,6.70
2018-04-07T19:20:52.932Z,7.67
2018-04-07T19:23:20.386Z,7.03
2018-04-07T19:25:47.916Z,5.80
2018-04-07T19:28:15.376Z,6.80
2018-04-07T19:30:42.866Z,7.43
2018-04-07T19:33:10.307Z,7.20
2018-04-07T19:35:37.767Z,8.97
2018-04-07T19:38:05.220Z,8.60
2018-04-07T19:40:32.745Z,8.30
2018-04-07T19:43:01.711Z,7.57
2018-04-07T19:45:29.177Z,9.33
2018-04-07T19:47:56.951Z,6.70
2018-04-07T19:50:24.725Z,7.23
2018-04-07T19:52:52.200Z,7.77
2018-04-07T19:55:19.662Z,8.13
2018-04-07T19:57:47.328Z,8.73
2018-04-07T20:00:14.792Z,7.10
2018-04-07T20:02:42.331Z,7.00
2018-04-07T20:05:09.794Z,7.20
2018-04-07T20:07:37.456Z,7.40
2018-04-07T20:10:04.915Z,7.00
2018-04-07T20:12:32.464Z,8.60
2018-04-07T20:14:59.979Z,9.40
2018-04-07T20:17:27.435Z,9.63
2018-04-07T20:19:55.145Z,8.60
2018-04-07T20:22:24.133Z,10.00
2018-04-07T20:24:51.907Z,10.03
2018-04-07T20:27:20.870Z,9.70
2018-04-07T20:29:48.335Z,9.33
2018-04-07T20:32:15.803Z,10.63
2018-04-07T20:34:43.264Z,7.60
2018-04-07T20:37:10.729Z,8.20
2018-04-07T20:39:38.191Z,8.80
2018-04-07T20:42:17.317Z,7.90
2018-04-07T20:44:44.784Z,7.53
2018-04-07T20:47:12.272Z,6.80
2018-04-07T20:49:39.895Z,7.73
2018-04-07T20:52:08.301Z,7.20
2018-04-07T20:54:35.765Z,7.43
2018-04-07T20:57:03.248Z,7.70
2018-04-07T20:59:30.726Z,6.90
2018-04-07T21:01:58.192Z,7.53
2018-04-07T21:04:25.665Z,6.30
2018-04-07T21:06:53.160Z,7.40
2018-04-07T21:09:20.720Z,7.20
2018-04-07T21:11:49.124Z,6.73
2018-04-07T21:14:16.583Z,6.87
2018-04-07T21:16:44.103Z,5.77
2018-04-07T21:19:11.568Z,7.50
2018-04-07T21:21:39.037Z,7.20
2018-04-07T21:24:06.515Z,7.10
2018-04-07T21:26:34.028Z,7.80
2018-04-07T21:29:03.016Z,7.70
2018-04-07T21:31:30.692Z,6.80
2018-04-07T21:33:58.148Z,6.17
2018-04-07T21:36:25.612Z,6.03
2018-04-07T21:38:53.156Z,6.93
2018-04-07T21:41:20.640Z,6.43
2018-04-07T21:43:48.311Z,5.43
2018-04-07T21:46:15.845Z,7.27
2018-04-07T21:48:44.083Z,6.33
2018-04-07T21:51:11.676Z,6.33
2018-04-07T21:53:39.443Z,7.53
2018-04-07T21:56:06.901Z,8.27
2018-04-07T21:58:34.663Z,7.47
2018-04-07T22:01:02.431Z,8.57
2018-04-07T22:03:29.898Z,9.33
2018-04-07T22:05:57.364Z,8.57
2018-04-07T22:08:25.031Z,6.97
2018-04-07T22:10:52.496Z,5.87
2018-04-07T22:13:20.182Z,6.07
2018-04-07T22:15:47.793Z,9.77
2018-04-07T22:18:15.248Z,7.40
2018-04-07T22:20:42.808Z,5.70
2018-04-07T22:23:10.479Z,6.30
2018-04-07T22:25:38.316Z,5.93
2018-04-07T22:28:06.012Z,5.37
2018-04-07T22:30:33.649Z,5.17
2018-04-07T22:33:01.117Z,5.27
2018-04-07T22:35:28.584Z,5.50
2018-04-07T22:37:56.051Z,5.63
2018-04-07T22:40:23.520Z,5.73
2018-04-07T22:42:50.984Z,5.27
2018-04-07T22:45:18.516Z,5.77
2018-04-07T22:47:45.998Z,5.37
2018-04-07T22:50:13.584Z,5.63
2018-04-07T22:52:41.056Z,5.43
2018-04-07T22:55:08.655Z,4.77
2018-04-07T22:57:36.120Z,5.40
2018-04-07T23:00:03.584Z,5.00
2018-04-07T23:02:31.336Z,5.90
2018-04-07T23:04:58.805Z,4.60
2018-04-07T23:07:26.276Z,5.30
2018-04-07T23:09:53.763Z,4.90
2018-04-07T23:12:21.228Z,4.00
2018-04-07T23:14:48.932Z,5.23
2018-04-07T23:17:16.808Z,5.83
2018-04-07T23:19:44.379Z,7.20
2018-04-07T23:22:11.853Z,5.57
2018-04-07T23:24:39.380Z,4.60
2018-04-07T23:27:06.853Z,4.30
2018-04-07T23:29:34.307Z,4.10
2018-04-07T23:32:02.068Z,4.20
2018-04-07T23:34:29.834Z,4.40
2018-04-07T23:36:57.293Z,4.30
2018-04-07T23:39:24.974Z,3.60
2018-04-07T23:41:52.576Z,4.53
2018-04-07T23:44:20.276Z,4.63
2018-04-07T23:46:48.035Z,6.07
2018-04-07T23:49:15.496Z,4.43
2018-04-07T23:51:42.956Z,4.27
2018-04-07T23:54:10.596Z,5.23
2018-04-07T23:56:38.184Z,3.90
2018-04-07T23:59:05.652Z,5.63
